Sleepy Hollow, Illinois
Current Conditions -  °F | °C
As of 9:52 PM on Thursday 27 Nov 2014 (Local Time) from KDPA Reporting Station
Clear Clear  
Wind Chill: 13°   Ceiling: Unl
Heat Index: 13°   Visibility: 9mi
Dew Point:   Wind: 3mph
Humidity: 84%   Direction: 270°W
Pressure: 30.39"   Gusts: NA
Location:  42.1081°N, 88.3234°W
Report Text: KDPA 280352Z 27003KT 9SM CLR M11/M13 A3039 RMK AO2 SLP306 T11061128
Loading
Personal Weather Stations






























Interactive Weather Map New forecast layout! Learn more

10-Day Weather Forecast

Advertisements
Track Severe Weather on mobile